Time;durP1;ratioP1;P1;durP2;ratioP2;P2;SDS_P1;SDS_P2;PMS_P1;PMS_P2;Temp;Humidity;BMP_temperature;BMP_pressure;BME280_temperature;BME280_humidity;BME280_pressure;Samples;Min_cycle;Max_cycle;Signal;HPM_P1;HPM_P2
2022/05/14 00:00:29;;;;;;;19.17;4.88;;;13.30;99.90;;;;;;5050159;28;20049;-69
2022/05/14 00:02:58;;;;;;;22.77;5.35;;;13.30;99.90;;;;;;5047125;28;20056;-70
2022/05/14 00:05:24;;;;;;;18.27;5.32;;;14.00;99.90;;;;;;5049168;28;20417;-70
2022/05/14 00:07:51;;;;;;;19.80;5.00;;;13.30;99.90;;;;;;5050814;28;20052;-68
2022/05/14 00:10:18;;;;;;;15.90;5.10;;;13.30;99.90;;;;;;5046592;28;20049;-69
2022/05/14 00:15:28;;;;;;;18.70;5.10;;;13.20;99.90;;;;;;5048801;28;20053;-69
2022/05/14 00:17:54;;;;;;;15.88;5.13;;;13.20;99.90;;;;;;5048895;28;20128;-69
2022/05/14 00:20:23;;;;;;;22.77;5.95;;;13.20;99.90;;;;;;5048960;28;20541;-69
2022/05/14 00:22:50;;;;;;;22.42;5.13;;;13.10;99.90;;;;;;5046782;28;20247;-69
2022/05/14 00:25:16;;;;;;;18.08;5.22;;;13.00;99.90;;;;;;5048700;28;20094;-69
2022/05/14 00:27:43;;;;;;;18.23;5.30;;;13.10;99.90;;;;;;5048075;28;20120;-69
2022/05/14 00:30:11;;;;;;;20.48;5.93;;;13.00;99.90;;;;;;5048567;28;20124;-69
2022/05/14 00:32:37;;;;;;;16.67;5.50;;;13.00;99.90;;;;;;5050414;28;20045;-69
2022/05/14 00:35:04;;;;;;;18.60;5.57;;;13.00;99.90;;;;;;5049094;28;20053;-69
2022/05/14 00:37:30;;;;;;;21.38;5.72;;;13.00;99.90;;;;;;5047233;28;20049;-69
2022/05/14 00:39:56;;;;;;;18.42;5.40;;;12.90;99.90;;;;;;5049695;28;20043;-69
2022/05/14 00:42:21;;;;;;;18.83;5.55;;;12.90;99.90;;;;;;5047579;28;20049;-69
2022/05/14 00:44:47;;;;;;;21.65;5.82;;;12.90;99.90;;;;;;5047635;28;20037;-69
2022/05/14 00:47:15;;;;;;;21.48;5.28;;;12.90;99.90;;;;;;5048270;28;20128;-69
2022/05/14 00:49:41;;;;;;;16.77;5.28;;;12.90;99.90;;;;;;5061965;28;20075;-69
2022/05/14 00:52:13;;;;;;;23.90;6.13;;;12.90;99.90;;;;;;5067542;28;20044;-69
2022/05/14 00:54:43;;;;;;;27.92;5.97;;;12.90;99.90;;;;;;5050079;28;20133;-69
2022/05/14 00:57:13;;;;;;;18.73;5.30;;;13.00;99.90;;;;;;5066985;28;20040;-69
2022/05/14 00:59:39;;;;;;;26.55;6.13;;;13.00;99.90;;;;;;5067524;28;20373;-69
2022/05/14 01:02:06;;;;;;;17.80;5.78;;;13.10;99.90;;;;;;5068219;28;20036;-69
2022/05/14 01:04:32;;;;;;;23.92;6.03;;;13.10;99.90;;;;;;5068200;28;20471;-69
2022/05/14 01:07:08;;;;;;;20.65;5.93;;;13.70;99.90;;;;;;5065668;28;20389;-69
2022/05/14 01:09:35;;;;;;;22.33;6.18;;;13.10;99.90;;;;;;5067597;28;20040;-69
2022/05/14 01:12:03;;;;;;;22.15;5.35;;;13.10;99.90;;;;;;5068941;28;20119;-69
2022/05/14 01:14:28;;;;;;;20.85;5.38;;;13.10;99.90;;;;;;5066737;28;20533;-69
2022/05/14 01:16:54;;;;;;;22.38;5.80;;;13.30;99.90;;;;;;5062553;28;20076;-69
2022/05/14 01:19:20;;;;;;;22.42;5.47;;;13.00;99.90;;;;;;5047544;28;20084;-69
2022/05/14 01:22:21;;;;;;;18.70;5.75;;;13.00;99.90;;;;;;5046364;28;20076;-69
2022/05/14 01:27:59;;;;;;;30.40;6.43;;;12.90;99.90;;;;;;5046627;28;20049;-69
2022/05/14 01:30:25;;;;;;;21.00;6.03;;;12.90;99.90;;;;;;5049756;28;20048;-69
2022/05/14 01:33:04;;;;;;;20.55;6.55;;;12.90;99.90;;;;;;5050606;28;20455;-68
2022/05/14 01:35:35;;;;;;;20.75;5.82;;;12.90;99.90;;;;;;5048084;28;20103;-69
2022/05/14 01:38:02;;;;;;;26.50;6.20;;;12.80;99.90;;;;;;5046260;28;20063;-69
2022/05/14 01:40:28;;;;;;;22.25;6.95;;;12.80;99.90;;;;;;5046089;28;20389;-69
2022/05/14 01:42:54;;;;;;;27.75;6.57;;;12.80;99.90;;;;;;5047152;28;20102;-69
2022/05/14 01:45:20;;;;;;;23.98;6.15;;;12.80;99.90;;;;;;5047858;28;20041;-69
2022/05/14 01:47:46;;;;;;;26.00;6.53;;;12.80;99.90;;;;;;5046941;28;20041;-69
2022/05/14 01:50:12;;;;;;;25.08;6.55;;;13.00;99.90;;;;;;5047451;28;20477;-69
2022/05/14 01:52:38;;;;;;;23.20;6.32;;;12.80;99.90;;;;;;5047626;28;20397;-69
2022/05/14 01:55:04;;;;;;;22.48;6.95;;;12.80;99.90;;;;;;5046261;28;20053;-69
2022/05/14 01:57:30;;;;;;;22.90;6.90;;;12.80;99.90;;;;;;5046094;28;20084;-69
2022/05/14 01:59:56;;;;;;;27.27;7.47;;;12.70;99.90;;;;;;5047666;28;20039;-69
2022/05/14 02:02:21;;;;;;;29.65;6.97;;;12.70;99.90;;;;;;5046715;28;20141;-69
2022/05/14 02:04:47;;;;;;;30.00;7.30;;;12.70;99.90;;;;;;5046718;28;20136;-69
2022/05/14 02:07:13;;;;;;;21.75;7.03;;;12.20;99.90;;;;;;5046489;28;20558;-69
2022/05/14 02:09:38;;;;;;;29.70;7.32;;;12.80;99.90;;;;;;5050242;28;20049;-69
2022/05/14 02:12:04;;;;;;;29.02;7.38;;;12.80;99.90;;;;;;5051971;28;20485;-69
2022/05/14 02:14:30;;;;;;;32.47;8.23;;;12.80;99.90;;;;;;5051148;28;20044;-69
2022/05/14 02:16:57;;;;;;;33.70;7.88;;;12.80;99.90;;;;;;5051091;28;20056;-70
2022/05/14 02:19:23;;;;;;;29.48;7.43;;;12.70;99.90;;;;;;5050641;28;20049;-69
2022/05/14 02:21:48;;;;;;;32.10;7.78;;;12.60;99.90;;;;;;5033874;28;20049;-69
2022/05/14 02:24:14;;;;;;;42.83;8.60;;;12.50;99.90;;;;;;5050170;28;20048;-69
2022/05/14 02:26:40;;;;;;;29.60;7.93;;;12.50;99.90;;;;;;5033246;28;20079;-69
2022/05/14 02:29:05;;;;;;;34.00;7.65;;;12.40;99.90;;;;;;5051126;28;20048;-69
2022/05/14 02:31:31;;;;;;;32.47;8.80;;;12.40;99.90;;;;;;5050267;28;20080;-70
2022/05/14 02:33:57;;;;;;;33.33;10.07;;;12.40;99.90;;;;;;5053600;28;20041;-69
2022/05/14 02:36:23;;;;;;;28.85;7.40;;;12.30;99.90;;;;;;5049309;28;20052;-70
2022/05/14 02:38:48;;;;;;;33.75;7.57;;;12.30;99.90;;;;;;5057429;28;20106;-69
2022/05/14 02:41:14;;;;;;;33.25;8.63;;;12.20;99.90;;;;;;5068090;28;20047;-69
2022/05/14 02:43:40;;;;;;;35.67;8.60;;;12.20;99.90;;;;;;5068143;28;20580;-69
2022/05/14 02:46:06;;;;;;;33.70;8.40;;;12.20;99.90;;;;;;5070867;28;20052;-69
2022/05/14 02:48:33;;;;;;;38.53;8.73;;;12.10;99.90;;;;;;5052829;28;20083;-70
2022/05/14 02:50:59;;;;;;;29.92;8.40;;;12.10;99.90;;;;;;5050451;28;20076;-70
2022/05/14 02:53:25;;;;;;;28.58;7.88;;;12.20;99.90;;;;;;5048780;28;20544;-69
2022/05/14 02:55:51;;;;;;;36.55;8.85;;;12.10;99.90;;;;;;5048996;28;20075;-69
2022/05/14 02:59:06;;;;;;;30.88;8.88;;;12.20;99.90;;;;;;5047539;28;20127;-69
2022/05/14 03:01:03;;;;;;;39.08;8.30;;;12.10;99.90;;;;;;5050402;28;20140;-69
2022/05/14 03:03:28;;;;;;;35.25;8.43;;;12.10;99.90;;;;;;5050416;28;20489;-69
2022/05/14 03:05:54;;;;;;;30.55;8.55;;;12.00;99.90;;;;;;5065911;28;20049;-69
2022/05/14 03:08:20;;;;;;;37.95;8.98;;;12.00;99.90;;;;;;5049456;28;20087;-69
2022/05/14 03:10:45;;;;;;;32.63;8.63;;;12.00;99.90;;;;;;5051306;28;20061;-69
2022/05/14 03:13:11;;;;;;;33.60;8.95;;;11.90;99.90;;;;;;5050344;28;20056;-69
2022/05/14 03:15:37;;;;;;;37.80;8.48;;;11.90;99.90;;;;;;5050405;28;20044;-69
2022/05/14 03:18:02;;;;;;;32.42;8.73;;;11.90;99.90;;;;;;5050143;28;20052;-68
2022/05/14 03:20:28;;;;;;;34.88;8.77;;;11.80;99.90;;;;;;5049219;28;20493;-68
2022/05/14 03:22:54;;;;;;;37.80;9.18;;;11.70;99.90;;;;;;5049921;28;20129;-69
2022/05/14 03:25:19;;;;;;;36.17;8.75;;;11.70;99.90;;;;;;5049934;28;20102;-69
2022/05/14 03:27:45;;;;;;;36.42;9.45;;;11.70;99.90;;;;;;5046987;28;20045;-69
2022/05/14 03:30:11;;;;;;;40.40;9.35;;;11.60;99.90;;;;;;5050447;28;20532;-69
2022/05/14 03:32:36;;;;;;;35.92;9.95;;;11.60;99.90;;;;;;5049617;28;20041;-69
2022/05/14 03:35:05;;;;;;;45.38;10.27;;;11.60;99.90;;;;;;5048208;28;20064;-69
2022/05/14 03:37:33;;;;;;;38.58;9.20;;;11.60;99.90;;;;;;5049600;28;20405;-70
2022/05/14 03:39:59;;;;;;;33.20;8.65;;;11.60;99.90;;;;;;5049447;28;20049;-70
2022/05/14 03:42:25;;;;;;;38.47;10.02;;;11.90;99.90;;;;;;5049590;28;20044;-70
2022/05/14 03:44:51;;;;;;;30.25;9.27;;;12.20;99.90;;;;;;5049649;28;20033;-70
2022/05/14 03:47:17;;;;;;;32.05;9.30;;;11.60;99.90;;;;;;5048834;28;20055;-69
2022/05/14 03:49:43;;;;;;;37.75;8.70;;;11.50;99.90;;;;;;5048809;28;20127;-70
2022/05/14 03:52:10;;;;;;;37.42;9.35;;;11.60;99.90;;;;;;5049070;28;20110;-70
2022/05/14 03:54:35;;;;;;;36.67;10.23;;;11.60;99.90;;;;;;5048965;28;20096;-70
2022/05/14 03:57:01;;;;;;;35.97;9.35;;;11.50;99.90;;;;;;5047859;28;20087;-70
2022/05/14 03:59:27;;;;;;;45.75;10.25;;;11.50;99.90;;;;;;5049443;28;20045;-69
2022/05/14 04:01:53;;;;;;;41.38;10.43;;;11.50;99.90;;;;;;5050841;28;20465;-70
2022/05/14 04:04:18;;;;;;;35.45;10.25;;;11.50;99.90;;;;;;5049712;28;20135;-70
2022/05/14 04:06:45;;;;;;;44.80;9.98;;;11.50;99.90;;;;;;5058807;28;20045;-69
2022/05/14 04:09:10;;;;;;;38.80;9.80;;;11.50;99.90;;;;;;5068692;28;20044;-70
2022/05/14 04:11:37;;;;;;;42.00;10.38;;;12.10;99.90;;;;;;5067364;28;20381;-70
2022/05/14 04:14:03;;;;;;;35.67;9.57;;;11.90;99.90;;;;;;5068945;28;20505;-70
2022/05/14 04:16:29;;;;;;;42.10;9.18;;;11.60;99.90;;;;;;5068338;28;20346;-70
2022/05/14 04:18:55;;;;;;;36.50;9.40;;;11.60;99.90;;;;;;5069736;28;20051;-70
2022/05/14 04:21:21;;;;;;;37.03;9.93;;;11.60;99.90;;;;;;5067782;28;20044;-70
2022/05/14 04:23:47;;;;;;;40.15;10.25;;;11.60;99.90;;;;;;5068824;28;20354;-70
2022/05/14 04:26:13;;;;;;;46.67;10.55;;;11.60;99.90;;;;;;5068166;28;20044;-70
2022/05/14 04:28:38;;;;;;;40.50;9.57;;;11.60;99.90;;;;;;5068842;28;20408;-70
2022/05/14 04:31:05;;;;;;;29.95;9.75;;;11.60;99.90;;;;;;5066505;28;20052;-70
2022/05/14 04:33:30;;;;;;;38.00;9.85;;;11.60;99.90;;;;;;5068160;28;20084;-70
2022/05/14 04:35:56;;;;;;;34.25;10.25;;;11.70;99.90;;;;;;5068825;28;20064;-70
2022/05/14 04:38:22;;;;;;;37.88;9.82;;;12.30;99.90;;;;;;5067830;28;20152;-70
2022/05/14 04:40:48;;;;;;;35.65;9.85;;;11.90;99.90;;;;;;5068760;28;20059;-70
2022/05/14 04:43:14;;;;;;;31.17;9.52;;;11.70;99.90;;;;;;5067323;28;20337;-70
2022/05/14 04:45:41;;;;;;;35.63;10.02;;;11.70;99.90;;;;;;5068900;28;20404;-70
2022/05/14 04:48:07;;;;;;;36.42;10.13;;;11.70;99.90;;;;;;5068673;28;20511;-70
2022/05/14 04:50:33;;;;;;;35.47;10.02;;;11.70;99.90;;;;;;5066900;28;20044;-70
2022/05/14 04:52:59;;;;;;;37.90;10.25;;;11.70;99.90;;;;;;5068700;28;20044;-70
2022/05/14 04:55:25;;;;;;;38.40;9.95;;;11.80;99.90;;;;;;5068048;28;20105;-70
2022/05/14 04:57:50;;;;;;;34.10;10.52;;;11.80;99.90;;;;;;5067137;28;20391;-70
2022/05/14 05:00:17;;;;;;;36.08;10.02;;;11.90;99.90;;;;;;5068488;28;20488;-70
2022/05/14 05:05:29;;;;;;;43.00;9.43;;;11.90;99.90;;;;;;5066370;28;20056;-70
2022/05/14 05:07:55;;;;;;;36.33;9.50;;;12.00;99.90;;;;;;5068555;28;20047;-70
2022/05/14 05:10:20;;;;;;;40.83;10.07;;;12.10;99.90;;;;;;5067815;28;20127;-70
2022/05/14 05:12:46;;;;;;;36.22;8.90;;;12.10;99.90;;;;;;5067747;28;20115;-70
2022/05/14 05:15:12;;;;;;;32.75;8.77;;;12.10;99.90;;;;;;5069579;28;20041;-70
2022/05/14 05:17:39;;;;;;;34.53;9.43;;;12.60;99.90;;;;;;5069281;28;20055;-70
2022/05/14 05:20:05;;;;;;;34.65;8.98;;;12.20;99.90;;;;;;5067974;28;20152;-70
2022/05/14 05:22:31;;;;;;;36.85;9.43;;;12.20;99.90;;;;;;5065908;28;20488;-70
2022/05/14 05:24:57;;;;;;;33.25;8.82;;;12.30;99.90;;;;;;5068967;28;20542;-70
2022/05/14 05:27:23;;;;;;;32.53;8.43;;;13.40;99.90;;;;;;5067366;28;20059;-70
2022/05/14 05:29:48;;;;;;;29.02;8.98;;;12.40;99.90;;;;;;5057964;28;20033;-70
2022/05/14 05:32:15;;;;;;;34.92;9.43;;;12.50;99.90;;;;;;5047656;28;20405;-70
2022/05/14 05:34:40;;;;;;;35.08;8.43;;;12.60;99.90;;;;;;5048033;28;20128;-70
2022/05/14 05:37:06;;;;;;;30.95;8.13;;;12.60;99.90;;;;;;5049970;28;20457;-70
2022/05/14 05:39:31;;;;;;;33.90;7.80;;;12.60;99.90;;;;;;5049645;28;20064;-70
2022/05/14 05:41:58;;;;;;;34.58;8.43;;;12.70;99.90;;;;;;5047186;28;20073;-70
2022/05/14 05:44:25;;;;;;;31.02;7.53;;;12.80;99.90;;;;;;5047567;28;20111;-70
2022/05/14 05:46:51;;;;;;;35.53;7.65;;;12.90;99.90;;;;;;5068562;28;20052;-69
2022/05/14 05:49:17;;;;;;;33.10;8.48;;;12.90;99.90;;;;;;5052851;28;20397;-70
2022/05/14 05:51:43;;;;;;;31.40;7.78;;;13.00;99.90;;;;;;5063052;28;20045;-70
2022/05/14 05:56:57;;;;;;;32.28;7.50;;;13.10;99.90;;;;;;5046855;28;20049;-70
2022/05/14 05:59:25;;;;;;;26.83;7.63;;;13.40;99.90;;;;;;5047523;28;20440;-70
2022/05/14 06:01:52;;;;;;;27.13;7.13;;;14.50;99.90;;;;;;5049768;28;20056;-69
2022/05/14 06:04:18;;;;;;;35.03;8.13;;;13.50;99.90;;;;;;5048233;28;20041;-70
2022/05/14 06:06:44;;;;;;;35.03;7.90;;;13.60;99.90;;;;;;5047704;28;20052;-70
2022/05/14 06:09:30;;;;;;;29.52;7.05;;;13.70;99.90;;;;;;5047065;28;20049;-70
2022/05/14 06:11:58;;;;;;;28.35;6.13;;;13.80;99.90;;;;;;5047473;28;20080;-69
2022/05/14 06:14:25;;;;;;;27.15;6.15;;;13.90;99.90;;;;;;5045832;28;20406;-69
2022/05/14 06:16:52;;;;;;;26.05;6.88;;;14.00;99.90;;;;;;5052610;28;20048;-69
2022/05/14 06:19:18;;;;;;;30.58;6.03;;;14.10;99.90;;;;;;5067119;28;20044;-69
2022/05/14 06:21:43;;;;;;;24.55;5.50;;;14.10;99.90;;;;;;5067138;28;20845;-69
2022/05/14 06:24:09;;;;;;;25.08;6.68;;;14.30;99.90;;;;;;5066765;28;20105;-69
2022/05/14 06:26:37;;;;;;;25.40;6.18;;;14.30;99.90;;;;;;5066107;28;20040;-69
2022/05/14 06:29:03;;;;;;;23.58;5.82;;;14.40;99.90;;;;;;5065490;28;20583;-69
2022/05/14 06:31:29;;;;;;;23.80;5.65;;;14.50;99.90;;;;;;5067225;28;20080;-69
2022/05/14 06:33:55;;;;;;;21.15;6.10;;;14.50;99.90;;;;;;5068135;28;20128;-69
2022/05/14 06:36:20;;;;;;;23.38;5.85;;;14.50;99.90;;;;;;5065250;28;20445;-69
2022/05/14 06:38:46;;;;;;;26.02;5.80;;;14.60;99.90;;;;;;5067037;28;20179;-69
2022/05/14 06:41:13;;;;;;;21.70;5.50;;;14.60;99.90;;;;;;5067553;28;20170;-69
2022/05/14 06:43:40;;;;;;;20.25;5.90;;;14.60;99.90;;;;;;5067149;28;20044;-71
2022/05/14 06:46:06;;;;;;;29.25;6.38;;;14.60;99.90;;;;;;5067132;28;20378;-69
2022/05/14 06:48:32;;;;;;;19.52;5.72;;;14.60;99.90;;;;;;5055635;28;20048;-69
2022/05/14 06:51:06;;;;;;;18.60;5.10;;;14.70;99.90;;;;;;5047809;28;20056;-69
2022/05/14 06:53:35;;;;;;;23.38;5.85;;;14.70;99.90;;;;;;5048434;28;20045;-69
2022/05/14 06:56:01;;;;;;;21.02;5.60;;;14.70;99.90;;;;;;5048141;28;20327;-69
2022/05/14 06:58:32;;;;;;;19.48;5.13;;;14.80;99.90;;;;;;5050753;28;20132;-69
2022/05/14 07:00:58;;;;;;;24.90;5.22;;;15.00;99.90;;;;;;5050163;28;20048;-69
2022/05/14 07:08:52;;;;;;;22.98;5.53;;;15.10;99.90;;;;;;5051548;28;20049;-69
2022/05/14 07:11:18;;;;;;;22.88;4.97;;;15.30;99.90;;;;;;5048764;28;20047;-69
2022/05/14 07:13:44;;;;;;;21.42;4.63;;;15.40;99.90;;;;;;5050485;28;20411;-69
2022/05/14 07:16:10;;;;;;;15.93;4.47;;;16.10;99.90;;;;;;5049135;28;20075;-69
2022/05/14 07:18:35;;;;;;;26.38;4.88;;;15.40;99.90;;;;;;5049686;28;20060;-69
2022/05/14 07:21:01;;;;;;;18.60;4.72;;;15.50;99.90;;;;;;5049628;28;20056;-70
2022/05/14 07:23:27;;;;;;;16.77;4.97;;;15.50;99.90;;;;;;5046215;28;20060;-70
2022/05/14 07:25:52;;;;;;;17.60;4.60;;;15.60;99.90;;;;;;5051874;28;20045;-70
2022/05/14 07:28:19;;;;;;;16.73;4.07;;;16.10;99.90;;;;;;5051609;28;20060;-70
2022/05/14 07:30:45;;;;;;;18.80;4.32;;;15.80;99.90;;;;;;5048705;28;20085;-70
2022/05/14 07:33:10;;;;;;;17.10;4.55;;;15.90;99.90;;;;;;5049568;28;20493;-70
2022/05/14 07:35:37;;;;;;;15.40;4.05;;;15.90;99.90;;;;;;5032233;28;20045;-70
2022/05/14 07:38:05;;;;;;;14.02;4.00;;;16.00;99.90;;;;;;5055672;28;20441;-70
2022/05/14 07:40:33;;;;;;;17.50;4.55;;;16.10;99.90;;;;;;5066815;28;20115;-70
2022/05/14 07:43:03;;;;;;;15.73;4.43;;;16.30;99.90;;;;;;5049417;28;20040;-69
2022/05/14 07:45:40;;;;;;;16.95;4.30;;;16.20;99.90;;;;;;5049754;28;20136;-70
2022/05/14 07:48:11;;;;;;;20.75;4.10;;;16.30;99.90;;;;;;5051132;28;20067;-70
2022/05/14 07:50:37;;;;;;;18.88;4.65;;;16.40;99.90;;;;;;5050524;28;20049;-70
2022/05/14 07:53:03;;;;;;;15.45;4.25;;;16.50;99.90;;;;;;5048681;28;20405;-69
2022/05/14 07:55:29;;;;;;;15.45;4.40;;;16.70;99.90;;;;;;5049136;28;20060;-70
2022/05/14 07:57:54;;;;;;;16.77;4.00;;;16.70;99.90;;;;;;5050656;28;20045;-70
2022/05/14 08:00:25;;;;;;;17.17;4.22;;;16.80;99.90;;;;;;5048129;28;20552;-70
2022/05/14 08:02:51;;;;;;;18.50;4.82;;;16.90;99.90;;;;;;5050100;28;20083;-69
2022/05/14 08:05:20;;;;;;;24.38;4.70;;;17.00;99.90;;;;;;5047333;28;20041;-70
2022/05/14 08:07:49;;;;;;;14.80;4.28;;;17.00;99.90;;;;;;5063504;28;20405;-70
2022/05/14 08:10:16;;;;;;;17.95;4.75;;;17.00;99.90;;;;;;5048901;28;20033;-70
2022/05/14 08:12:51;;;;;;;17.67;4.70;;;17.10;99.90;;;;;;5048290;28;20130;-70
2022/05/14 08:15:18;;;;;;;18.77;5.00;;;17.30;99.90;;;;;;5047655;28;20037;-70
2022/05/14 08:17:44;;;;;;;15.57;4.68;;;17.20;99.90;;;;;;5061236;28;20076;-70
2022/05/14 08:20:11;;;;;;;18.48;4.60;;;17.20;99.90;;;;;;5068697;28;20040;-70
2022/05/14 08:25:21;;;;;;;18.00;4.60;;;17.50;99.90;;;;;;5068208;28;20094;-70
2022/05/14 08:27:47;;;;;;;17.25;4.20;;;17.50;99.90;;;;;;5050127;28;20071;-69
2022/05/14 08:30:19;;;;;;;16.40;4.40;;;17.70;99.90;;;;;;5068910;28;20052;-70
2022/05/14 08:32:45;;;;;;;17.85;4.60;;;17.70;99.90;;;;;;5069488;28;20043;-70
2022/05/14 08:35:11;;;;;;;18.23;4.43;;;17.90;99.90;;;;;;5066960;28;20045;-69
2022/05/14 08:37:37;;;;;;;18.30;4.18;;;17.90;99.90;;;;;;5066809;28;20075;-69
2022/05/14 08:40:09;;;;;;;21.08;4.43;;;18.10;99.90;;;;;;5068939;28;20079;-70
2022/05/14 08:42:37;;;;;;;19.17;4.78;;;18.10;99.90;;;;;;5068570;28;20037;-70
2022/05/14 08:45:03;;;;;;;19.13;4.25;;;18.20;99.90;;;;;;5069872;28;20055;-67
2022/05/14 08:47:39;;;;;;;17.15;4.63;;;18.30;99.90;;;;;;5067351;28;20377;-70
2022/05/14 08:50:07;;;;;;;19.50;4.32;;;18.50;99.90;;;;;;5067372;28;20071;-68
2022/05/14 08:52:35;;;;;;;16.33;4.35;;;18.60;99.90;;;;;;5068412;28;20154;-68
2022/05/14 08:55:05;;;;;;;20.00;4.90;;;18.70;99.90;;;;;;5067302;28;20048;-69
2022/05/14 08:57:49;;;;;;;17.27;4.65;;;18.80;99.90;;;;;;5067013;28;20093;-70
2022/05/14 09:00:16;;;;;;;14.50;4.22;;;19.00;99.90;;;;;;5068651;28;20052;-69
2022/05/14 09:02:43;;;;;;;18.13;4.65;;;19.40;99.90;;;;;;5065846;28;20531;-69
2022/05/14 09:05:26;;;;;;;18.98;4.70;;;19.70;99.90;;;;;;5066813;28;20385;-70
2022/05/14 09:07:52;;;;;;;17.55;4.63;;;19.20;99.90;;;;;;5068242;28;20052;-70
2022/05/14 09:10:26;;;;;;;19.67;4.78;;;19.30;99.90;;;;;;5065841;28;20542;-69
2022/05/14 09:13:09;;;;;;;17.27;4.72;;;19.30;99.90;;;;;;5067749;28;20044;-69
2022/05/14 09:15:47;;;;;;;18.05;4.57;;;19.40;99.90;;;;;;5067612;28;20051;-70
2022/05/14 09:18:29;;;;;;;16.85;4.38;;;19.60;99.90;;;;;;5067021;28;20048;-70
2022/05/14 09:21:09;;;;;;;18.92;4.45;;;19.80;99.90;;;;;;5068657;28;20041;-69
2022/05/14 09:23:37;;;;;;;23.92;5.13;;;19.90;99.90;;;;;;5067044;28;20447;-69
2022/05/14 09:26:15;;;;;;;20.25;4.85;;;20.00;99.90;;;;;;5067624;28;20043;-70
2022/05/14 09:28:46;;;;;;;17.25;4.13;;;20.00;99.90;;;;;;5064611;28;20497;-69
2022/05/14 09:31:26;;;;;;;21.40;4.88;;;20.10;99.90;;;;;;5046455;28;20033;-69
2022/05/14 09:34:14;;;;;;;16.73;4.40;;;20.40;99.90;;;;;;5048088;28;20056;-70
2022/05/14 09:36:40;;;;;;;18.10;4.22;;;20.60;99.90;;;;;;5045689;28;20045;-70
2022/05/14 09:39:11;;;;;;;14.95;4.30;;;20.80;99.90;;;;;;5047936;28;20045;-70
2022/05/14 09:41:50;;;;;;;16.75;4.22;;;21.70;99.90;;;;;;5046141;28;20421;-70
2022/05/14 09:44:34;;;;;;;18.35;4.63;;;21.00;99.90;;;;;;5046221;28;20044;-70
2022/05/14 09:47:10;;;;;;;18.25;4.43;;;21.30;99.90;;;;;;5047899;28;20045;-70
2022/05/14 09:49:42;;;;;;;21.95;4.63;;;21.50;99.90;;;;;;5047577;28;20102;-70
2022/05/14 09:52:13;;;;;;;18.70;5.05;;;21.70;99.90;;;;;;5046750;28;20045;-70
2022/05/14 09:54:46;;;;;;;15.13;4.07;;;21.90;99.90;;;;;;5047951;28;20057;-69
2022/05/14 09:57:33;;;;;;;17.70;4.47;;;22.00;99.90;;;;;;5045024;28;20466;-69
2022/05/14 10:00:16;;;;;;;18.67;4.07;;;22.00;99.90;;;;;;5046865;28;20501;-68
2022/05/14 10:03:18;;;;;;;20.27;4.32;;;21.80;99.60;;;;;;5045921;28;20151;-69
2022/05/14 10:06:15;;;;;;;16.17;4.75;;;21.40;99.90;;;;;;5045488;28;20583;-69
2022/05/14 10:09:05;;;;;;;17.45;4.18;;;21.40;99.90;;;;;;5047373;28;20049;-69
2022/05/14 10:11:33;;;;;;;16.33;4.20;;;22.40;99.90;;;;;;5047063;28;20085;-69
2022/05/14 10:14:05;;;;;;;15.68;4.00;;;21.90;99.70;;;;;;5045368;28;20052;-69
2022/05/14 10:16:46;;;;;;;18.63;5.07;;;22.10;99.80;;;;;;5047477;28;20099;-69
2022/05/14 10:20:00;;;;;;;17.58;4.30;;;22.60;99.30;;;;;;5046925;28;20048;-69
2022/05/14 10:26:44;;;;;;;19.75;4.60;;;23.20;98.90;;;;;;5044635;28;20045;-70
2022/05/14 10:28:30;;;;;;;24.92;4.88;;;26.30;96.20;;;;;;5045872;28;20107;-69
2022/05/14 10:31:14;;;;;;;14.52;4.22;;;28.60;91.90;;;;;;5049664;28;20079;-71
2022/05/14 10:33:40;;;;;;;17.00;4.38;;;30.80;85.10;;;;;;5049179;28;20049;-69
2022/05/14 10:36:23;;;;;;;20.48;4.47;;;32.40;77.40;;;;;;5049003;28;20106;-70
2022/05/14 10:38:53;;;;;;;15.25;4.60;;;32.70;72.40;;;;;;5051254;28;20444;-70
2022/05/14 10:41:37;;;;;;;16.17;4.32;;;31.90;72.10;;;;;;5051435;28;20085;-70
2022/05/14 10:44:10;;;;;;;16.65;4.30;;;32.60;72.70;;;;;;5052500;28;20544;-69
2022/05/14 10:46:40;;;;;;;11.32;3.65;;;34.60;70.00;;;;;;5051090;28;20040;-70
2022/05/14 10:49:17;;;;;;;14.70;4.40;;;36.10;64.00;;;;;;5048890;28;20045;-70
2022/05/14 10:51:51;;;;;;;15.02;4.68;;;36.70;59.60;;;;;;5050253;28;20033;-70
2022/05/14 10:54:22;;;;;;;16.17;4.20;;;37.40;59.30;;;;;;5048671;28;20075;-70
2022/05/14 10:56:53;;;;;;;20.08;4.68;;;38.70;57.30;;;;;;5050061;28;20213;-70
2022/05/14 10:59:39;;;;;;;16.13;4.40;;;38.80;54.90;;;;;;5049902;28;20461;-70
2022/05/14 11:02:23;;;;;;;16.50;4.25;;;37.60;52.30;;;;;;5049460;28;20091;-70
2022/05/14 11:04:51;;;;;;;15.90;4.60;;;36.20;53.20;;;;;;5050097;28;20358;-70
2022/05/14 11:07:51;;;;;;;14.52;4.30;;;36.40;54.40;;;;;;5048922;28;20052;-70
2022/05/14 11:10:22;;;;;;;13.00;4.38;;;38.20;53.30;;;;;;5047661;28;20176;-71
2022/05/14 11:12:50;;;;;;;16.52;4.40;;;40.10;51.20;;;;;;5049475;28;20045;-70
2022/05/14 11:15:28;;;;;;;11.57;4.07;;;41.10;49.30;;;;;;5049662;28;20412;-69
2022/05/14 11:18:04;;;;;;;13.85;4.40;;;41.80;49.60;;;;;;5049300;28;20056;-70
2022/05/14 11:20:30;;;;;;;13.40;4.38;;;42.20;48.10;;;;;;5050124;28;20067;-70
2022/05/14 11:23:09;;;;;;;16.30;4.60;;;42.10;46.40;;;;;;5049284;28;20036;-70
2022/05/14 11:25:36;;;;;;;14.32;4.40;;;41.80;46.80;;;;;;5049877;28;20146;-70
2022/05/14 11:28:17;;;;;;;17.27;4.03;;;41.00;47.20;;;;;;5049573;28;20107;-70
2022/05/14 11:30:45;;;;;;;17.10;4.55;;;40.60;46.20;;;;;;5048549;28;20056;-70
2022/05/14 11:33:26;;;;;;;16.73;4.65;;;39.80;45.90;;;;;;5049352;28;20087;-70
2022/05/14 11:35:56;;;;;;;14.15;4.72;;;38.20;45.70;;;;;;5052926;28;20183;-69
2022/05/14 11:38:25;;;;;;;16.75;4.70;;;36.00;46.30;;;;;;5048302;28;20251;-70
2022/05/14 11:41:01;;;;;;;15.88;4.60;;;34.30;47.70;;;;;;5049300;28;20115;-69
2022/05/14 11:43:30;;;;;;;17.02;4.60;;;32.90;49.30;;;;;;5046420;28;20443;-70
2022/05/14 11:46:19;;;;;;;15.73;4.85;;;33.30;49.80;;;;;;5050439;28;20124;-70
2022/05/14 11:49:09;;;;;;;14.75;4.32;;;34.70;49.00;;;;;;5049948;28;20048;-70
2022/05/14 11:52:01;;;;;;;15.93;4.28;;;36.00;48.60;;;;;;5048194;28;20041;-70
2022/05/14 11:54:36;;;;;;;14.07;4.60;;;37.30;48.60;;;;;;5047683;28;20064;-70
2022/05/14 11:57:22;;;;;;;15.85;4.43;;;38.10;47.10;;;;;;5047995;28;20044;-70
2022/05/14 11:59:56;;;;;;;16.35;4.72;;;38.40;46.40;;;;;;5048620;28;20055;-70
2022/05/14 12:02:41;;;;;;;14.03;4.67;;;37.20;46.00;;;;;;5064312;28;20139;-68
2022/05/14 12:05:15;;;;;;;15.50;4.00;;;35.50;46.60;;;;;;5047650;28;20283;-70
2022/05/14 12:07:51;;;;;;;12.85;4.35;;;34.10;47.40;;;;;;5067370;28;20049;-70
2022/05/14 12:10:39;;;;;;;17.83;4.32;;;32.80;48.30;;;;;;5071108;28;20140;-70
2022/05/14 12:13:13;;;;;;;17.75;4.55;;;31.80;49.90;;;;;;5068791;28;20044;-71
2022/05/14 12:15:47;;;;;;;18.35;4.88;;;30.90;50.10;;;;;;5069517;28;20048;-70
2022/05/14 12:18:13;;;;;;;17.77;4.57;;;29.80;50.80;;;;;;5066944;28;20079;-70
2022/05/14 12:20:39;;;;;;;21.52;5.07;;;28.60;51.90;;;;;;5068942;28;20389;-70
2022/05/14 12:23:09;;;;;;;18.45;5.05;;;27.60;53.30;;;;;;5068071;28;20132;-69
2022/05/14 12:25:46;;;;;;;16.90;4.75;;;27.30;54.50;;;;;;5068251;28;20041;-70
2022/05/14 12:28:20;;;;;;;13.35;4.55;;;28.50;53.60;;;;;;5067249;28;20100;-70
2022/05/14 12:34:07;;;;;;;16.48;4.97;;;27.90;53.50;;;;;;5050372;28;20284;-70
2022/05/14 12:36:44;;;;;;;16.08;4.72;;;26.90;54.70;;;;;;5047143;28;20574;-70
2022/05/14 12:39:17;;;;;;;18.90;5.18;;;26.10;56.00;;;;;;5049004;28;20053;-70
2022/05/14 12:41:46;;;;;;;20.45;5.45;;;25.20;57.00;;;;;;5048488;28;20072;-70
2022/05/14 12:44:23;;;;;;;17.45;4.60;;;24.90;58.10;;;;;;5051177;28;20052;-70
2022/05/14 12:46:54;;;;;;;17.25;4.28;;;24.60;59.00;;;;;;5048424;28;20239;-70
2022/05/14 12:49:58;;;;;;;20.20;4.70;;;24.40;59.40;;;;;;5048268;28;20053;-70
2022/05/14 12:52:28;;;;;;;17.25;4.97;;;24.40;60.10;;;;;;5024137;28;20072;-70
2022/05/14 12:55:11;;;;;;;19.27;4.60;;;24.50;60.10;;;;;;5026273;28;20057;-70
2022/05/14 12:57:39;;;;;;;18.13;4.63;;;24.50;60.40;;;;;;5039091;28;20049;-70
2022/05/14 13:00:07;;;;;;;19.52;5.05;;;24.50;60.50;;;;;;5048281;28;20116;-71
2022/05/14 13:02:42;;;;;;;15.88;4.82;;;24.40;60.80;;;;;;5048036;28;20049;-71
2022/05/14 13:05:13;;;;;;;19.52;4.30;;;24.50;60.90;;;;;;5048408;28;20049;-70
2022/05/14 13:08:02;;;;;;;17.10;4.55;;;24.50;60.30;;;;;;5045821;28;20504;-71
2022/05/14 13:10:28;;;;;;;19.67;4.97;;;24.60;60.30;;;;;;5047578;28;20346;-71
2022/05/14 13:12:57;;;;;;;18.20;5.03;;;24.50;60.70;;;;;;5047923;28;20102;-70
2022/05/14 13:15:32;;;;;;;15.05;4.82;;;24.40;61.50;;;;;;5047113;28;20045;-72